createdAt,value
2017-02-12T00:00:27.616Z,27.2
2017-02-12T00:01:27.564Z,27.2
2017-02-12T00:02:25.631Z,27.2
2017-02-12T00:03:29.112Z,27.2
2017-02-12T00:04:25.827Z,27.2
2017-02-12T00:05:25.837Z,27.2
2017-02-12T00:06:29.297Z,27.2
2017-02-12T00:07:25.972Z,27.2
2017-02-12T00:08:27.912Z,27.2
2017-02-12T00:09:26.134Z,27.2
2017-02-12T00:10:29.448Z,27.2
2017-02-12T00:11:26.073Z,27.2
2017-02-12T00:12:26.160Z,27.2
2017-02-12T00:13:26.197Z,27.2
2017-02-12T00:14:26.206Z,27.2
2017-02-12T00:15:28.177Z,27.2
2017-02-12T00:16:28.270Z,27.2
2017-02-12T00:17:26.375Z,27.2
2017-02-12T00:18:28.496Z,27.2
2017-02-12T00:19:28.600Z,27.2
2017-02-12T00:20:26.671Z,27.2
2017-02-12T00:21:26.636Z,27.2
2017-02-12T00:22:30.094Z,27.2
2017-02-12T00:23:28.664Z,27.2
2017-02-12T00:24:26.858Z,27.2
2017-02-12T00:25:30.209Z,27.2
2017-02-12T00:26:26.961Z,27.2
2017-02-12T00:27:27.021Z,27.2
2017-02-12T00:28:27.142Z,27.2
2017-02-12T00:29:27.083Z,27.2
2017-02-12T00:30:27.215Z,27.1
2017-02-12T00:31:30.568Z,27.2
2017-02-12T00:32:27.344Z,27.2
2017-02-12T00:33:27.335Z,27.1
2017-02-12T00:34:27.420Z,27.1
2017-02-12T00:35:27.426Z,27.1
2017-02-12T00:36:30.882Z,27.2
2017-02-12T00:37:30.913Z,27.1
2017-02-12T00:38:30.898Z,27.1
2017-02-12T00:39:27.605Z,27.1
2017-02-12T00:40:29.527Z,27.1
2017-02-12T00:41:27.721Z,27.1
2017-02-12T00:42:27.682Z,27.1
2017-02-12T00:43:29.764Z,27.1
2017-02-12T00:44:27.805Z,27.1
2017-02-12T00:45:27.963Z,27.1
2017-02-12T00:46:27.909Z,27.2
2017-02-12T00:47:29.849Z,27.1
2017-02-12T00:48:29.945Z,27.1
2017-02-12T00:49:31.939Z,27.1
2017-02-12T00:50:28.106Z,27.1
2017-02-12T00:51:30.149Z,27.1
2017-02-12T00:52:31.606Z,27.1
2017-02-12T00:53:28.226Z,27.1
2017-02-12T00:54:28.334Z,27.1
2017-02-12T00:55:28.395Z,27.1
2017-02-12T00:56:28.457Z,27.1
2017-02-12T00:57:28.537Z,27.1
2017-02-12T00:58:28.615Z,27.1
2017-02-12T00:59:28.585Z,27.1
2017-02-12T01:00:28.688Z,27.1
2017-02-12T01:01:28.784Z,27.1
2017-02-12T01:02:28.779Z,27.1
2017-02-12T01:03:28.948Z,27.1
2017-02-12T01:04:30.912Z,27.1
2017-02-12T01:05:29.044Z,27.1
2017-02-12T01:06:29.044Z,27.1
2017-02-12T01:07:29.077Z,27.1
2017-02-12T01:08:32.502Z,27.1
2017-02-12T01:09:32.583Z,27.1
2017-02-12T01:10:31.194Z,27.1
2017-02-12T01:11:32.597Z,27.1
2017-02-12T01:12:31.344Z,27.1
2017-02-12T01:13:29.485Z,27.1
2017-02-12T01:14:29.562Z,27.1
2017-02-12T01:15:29.597Z,27.1
2017-02-12T01:16:32.987Z,27.1
2017-02-12T01:17:31.520Z,27.1
2017-02-12T01:18:31.640Z,27.1
2017-02-12T01:19:33.108Z,27.1
2017-02-12T01:20:29.746Z,27.1
2017-02-12T01:21:33.069Z,27.1
2017-02-12T01:22:33.174Z,27.1
2017-02-12T01:23:31.775Z,27.1
2017-02-12T01:24:29.863Z,27.1
2017-02-12T01:25:30.047Z,27.1
2017-02-12T01:26:30.090Z,27.1
2017-02-12T01:27:30.129Z,27.1
2017-02-12T01:28:33.514Z,27.1
2017-02-12T01:29:30.168Z,27.1
2017-02-12T01:30:30.271Z,27.1
2017-02-12T01:31:30.385Z,27.1
2017-02-12T01:32:33.690Z,27.1
2017-02-12T01:33:32.374Z,27.1
2017-02-12T01:34:33.878Z,27.1
2017-02-12T01:35:33.950Z,27.1
2017-02-12T01:36:32.688Z,27.1
2017-02-12T01:37:32.653Z,27.1
2017-02-12T01:38:34.147Z,27.1
2017-02-12T01:39:30.762Z,27.1
2017-02-12T01:40:32.791Z,27.1
2017-02-12T01:41:34.303Z,27.1
2017-02-12T01:42:30.933Z,27.1
2017-02-12T01:43:34.391Z,27.1
2017-02-12T01:44:31.157Z,27.1
2017-02-12T01:45:31.243Z,27.1
2017-02-12T01:46:33.782Z,27.1
2017-02-12T01:47:34.556Z,27.1
2017-02-12T01:48:33.179Z,27.1
2017-02-12T01:49:34.615Z,27.1
2017-02-12T01:50:31.409Z,27.1
2017-02-12T01:51:31.471Z,27.1
2017-02-12T01:52:31.527Z,27.1
2017-02-12T01:53:34.908Z,27.1
2017-02-12T01:54:31.644Z,27.1
2017-02-12T01:55:31.617Z,27.1
2017-02-12T01:56:31.689Z,27.1
2017-02-12T01:57:31.690Z,27.1
2017-02-12T01:58:31.764Z,27.1
2017-02-12T01:59:33.658Z,27.1
2017-02-12T02:00:31.848Z,27.1
2017-02-12T02:01:31.931Z,27.1
2017-02-12T02:02:31.917Z,27.1
2017-02-12T02:03:31.919Z,27.1
2017-02-12T02:04:31.927Z,27.1
2017-02-12T02:05:31.913Z,27.1
2017-02-12T02:06:31.927Z,27.1
2017-02-12T02:07:32.086Z,27.1
2017-02-12T02:08:34.536Z,27.1
2017-02-12T02:09:32.311Z,27.1
2017-02-12T02:10:35.624Z,27.1
2017-02-12T02:11:32.298Z,27.1
2017-02-12T02:12:35.775Z,27.1
2017-02-12T02:13:34.400Z,27.1
2017-02-12T02:14:32.468Z,27.1
2017-02-12T02:15:32.529Z,27.1
2017-02-12T02:16:32.455Z,27.1
2017-02-12T02:17:35.943Z,27.1
2017-02-12T02:18:34.591Z,27.1
2017-02-12T02:19:34.613Z,27.1
2017-02-12T02:20:36.150Z,27.1
2017-02-12T02:21:32.841Z,27.1
2017-02-12T02:22:36.180Z,27.1
2017-02-12T02:23:32.845Z,27.1
2017-02-12T02:24:33.615Z,27.1
2017-02-12T02:25:32.979Z,27.1
2017-02-12T02:26:33.024Z,27.1
2017-02-12T02:27:36.413Z,27.1
2017-02-12T02:28:33.225Z,27.1
2017-02-12T02:29:33.109Z,27.1
2017-02-12T02:30:33.238Z,27.1
2017-02-12T02:31:33.272Z,27.1
2017-02-12T02:32:35.137Z,27.1
2017-02-12T02:33:33.356Z,27.1
2017-02-12T02:34:33.447Z,27.1
2017-02-12T02:35:33.416Z,27.1
2017-02-12T02:36:35.497Z,27.1
2017-02-12T02:37:33.598Z,27.1
2017-02-12T02:38:36.905Z,27
2017-02-12T02:39:35.524Z,27.1
2017-02-12T02:40:36.943Z,27.1
2017-02-12T02:41:35.700Z,27.1
2017-02-12T02:42:33.841Z,27.1
2017-02-12T02:43:33.830Z,27.1
2017-02-12T02:44:38.018Z,27.1
2017-02-12T02:45:33.994Z,27
2017-02-12T02:46:37.954Z,27.1
2017-02-12T02:47:34.130Z,27.1
2017-02-12T02:48:36.244Z,27.1
2017-02-12T02:49:37.721Z,27.1
2017-02-12T02:50:36.275Z,27.1
2017-02-12T02:51:37.753Z,27.1
2017-02-12T02:52:37.878Z,27.1
2017-02-12T02:53:36.465Z,27.1
2017-02-12T02:54:34.592Z,27
2017-02-12T02:55:34.993Z,27.1
2017-02-12T02:56:38.027Z,27.1
2017-02-12T02:57:38.046Z,27
2017-02-12T02:58:34.770Z,27
2017-02-12T02:59:34.872Z,27
2017-02-12T03:00:38.204Z,27.1
2017-02-12T03:01:35.215Z,27
2017-02-12T03:02:34.955Z,27
2017-02-12T03:03:34.995Z,27
2017-02-12T03:04:36.949Z,27
2017-02-12T03:05:37.058Z,27
2017-02-12T03:06:35.209Z,27
2017-02-12T03:07:38.865Z,27
2017-02-12T03:08:35.358Z,27
2017-02-12T03:09:35.388Z,27
2017-02-12T03:10:35.467Z,27
2017-02-12T03:11:37.396Z,27
2017-02-12T03:12:35.518Z,27
2017-02-12T03:13:35.842Z,27
2017-02-12T03:14:37.660Z,27
2017-02-12T03:15:35.734Z,27
2017-02-12T03:16:35.738Z,27
2017-02-12T03:17:37.793Z,27
2017-02-12T03:18:39.250Z,27
2017-02-12T03:19:36.221Z,27
2017-02-12T03:20:39.256Z,27
2017-02-12T03:21:37.863Z,27
2017-02-12T03:22:38.017Z,27
2017-02-12T03:23:39.441Z,27
2017-02-12T03:24:39.426Z,27
2017-02-12T03:25:38.367Z,27
2017-02-12T03:26:39.600Z,27
2017-02-12T03:27:36.369Z,27
2017-02-12T03:28:38.268Z,27
2017-02-12T03:29:36.362Z,27
2017-02-12T03:30:38.405Z,27
2017-02-12T03:31:38.686Z,27
2017-02-12T03:32:36.480Z,27
2017-02-12T03:33:39.989Z,27
2017-02-12T03:34:36.648Z,27
2017-02-12T03:35:40.028Z,27
2017-02-12T03:36:36.661Z,27
2017-02-12T03:37:40.404Z,27
2017-02-12T03:38:36.880Z,27
2017-02-12T03:39:36.877Z,27
2017-02-12T03:40:36.971Z,27
2017-02-12T03:41:40.303Z,27
2017-02-12T03:42:37.007Z,27
2017-02-12T03:43:39.351Z,27
2017-02-12T03:44:37.114Z,27
2017-02-12T03:45:40.530Z,27
2017-02-12T03:46:37.236Z,27
2017-02-12T03:47:40.600Z,27
2017-02-12T03:48:40.652Z,27
2017-02-12T03:49:37.655Z,27
2017-02-12T03:50:37.323Z,27
2017-02-12T03:51:37.464Z,27
2017-02-12T03:52:37.571Z,27
2017-02-12T03:53:37.662Z,27
2017-02-12T03:54:37.539Z,27
2017-02-12T03:55:39.869Z,27
2017-02-12T03:56:39.605Z,27
2017-02-12T03:57:39.575Z,27
2017-02-12T03:58:37.672Z,27
2017-02-12T03:59:37.746Z,27
2017-02-12T04:00:41.145Z,27
2017-02-12T04:01:41.509Z,27
2017-02-12T04:02:41.261Z,27
2017-02-12T04:03:39.957Z,27
2017-02-12T04:04:41.445Z,27
2017-02-12T04:05:38.072Z,27
2017-02-12T04:06:39.961Z,27
2017-02-12T04:07:38.335Z,27
2017-02-12T04:08:41.480Z,27
2017-02-12T04:09:40.155Z,27
2017-02-12T04:10:38.285Z,27
2017-02-12T04:11:38.388Z,27
2017-02-12T04:12:38.381Z,27
2017-02-12T04:13:38.664Z,27
2017-02-12T04:14:38.468Z,27
2017-02-12T04:15:38.554Z,27
2017-02-12T04:16:38.648Z,27
2017-02-12T04:17:40.604Z,27
2017-02-12T04:18:42.083Z,27
2017-02-12T04:19:42.427Z,27
2017-02-12T04:20:40.680Z,27
2017-02-12T04:21:42.172Z,27
2017-02-12T04:22:38.924Z,27
2017-02-12T04:23:40.876Z,27
2017-02-12T04:24:39.079Z,27
2017-02-12T04:25:39.439Z,27
2017-02-12T04:26:42.558Z,27
2017-02-12T04:27:41.120Z,27
2017-02-12T04:28:39.383Z,27
2017-02-12T04:29:39.328Z,27
2017-02-12T04:30:39.342Z,27
2017-02-12T04:31:43.039Z,27
2017-02-12T04:32:39.463Z,27
2017-02-12T04:33:39.474Z,27
2017-02-12T04:34:39.663Z,27
2017-02-12T04:35:39.650Z,27
2017-02-12T04:36:42.997Z,27
2017-02-12T04:37:40.096Z,27
2017-02-12T04:38:41.785Z,27
2017-02-12T04:39:41.753Z,27
2017-02-12T04:40:39.931Z,27
2017-02-12T04:41:43.241Z,27
2017-02-12T04:42:40.058Z,27
2017-02-12T04:43:42.247Z,27
2017-02-12T04:44:40.219Z,27
2017-02-12T04:45:40.244Z,27
2017-02-12T04:46:42.125Z,27
2017-02-12T04:47:40.351Z,27
2017-02-12T04:48:40.845Z,27
2017-02-12T04:49:40.740Z,27
2017-02-12T04:50:40.467Z,27
2017-02-12T04:51:40.456Z,27
2017-02-12T04:52:43.817Z,27
2017-02-12T04:53:42.463Z,27
2017-02-12T04:54:40.549Z,27
2017-02-12T04:55:42.918Z,27
2017-02-12T04:56:42.601Z,27
2017-02-12T04:57:42.678Z,27
2017-02-12T04:58:40.779Z,27
2017-02-12T04:59:40.787Z,27
2017-02-12T05:00:44.229Z,27
2017-02-12T05:01:41.201Z,27
2017-02-12T05:02:44.417Z,27
2017-02-12T05:03:41.092Z,27
2017-02-12T05:04:41.225Z,27
2017-02-12T05:05:41.240Z,27
2017-02-12T05:06:41.289Z,27
2017-02-12T05:07:43.554Z,27
2017-02-12T05:08:41.449Z,27
2017-02-12T05:09:44.755Z,27
2017-02-12T05:10:43.341Z,27
2017-02-12T05:11:41.620Z,27
2017-02-12T05:12:41.706Z,27
2017-02-12T05:13:41.978Z,27
2017-02-12T05:14:43.653Z,27
2017-02-12T05:15:45.149Z,27
2017-02-12T05:16:41.936Z,27
2017-02-12T05:17:41.944Z,27
2017-02-12T05:18:43.932Z,27
2017-02-12T05:19:44.187Z,27
2017-02-12T05:20:42.128Z,27
2017-02-12T05:21:42.181Z,26.9
2017-02-12T05:22:45.634Z,26.9
2017-02-12T05:23:45.690Z,26.9
2017-02-12T05:24:44.269Z,26.9
2017-02-12T05:25:45.970Z,26.9
2017-02-12T05:26:42.444Z,26.9
2017-02-12T05:27:44.459Z,26.9
2017-02-12T05:28:42.520Z,26.9
2017-02-12T05:29:44.466Z,27
2017-02-12T05:30:42.554Z,27
2017-02-12T05:31:46.275Z,27
2017-02-12T05:32:45.952Z,26.9
2017-02-12T05:33:45.982Z,27
2017-02-12T05:34:42.828Z,26.9
2017-02-12T05:35:44.796Z,27
2017-02-12T05:36:42.889Z,27
2017-02-12T05:37:46.568Z,26.9
2017-02-12T05:38:43.059Z,26.9
2017-02-12T05:39:43.043Z,26.9
2017-02-12T05:40:43.059Z,26.9
2017-02-12T05:41:46.438Z,26.9
2017-02-12T05:42:43.254Z,27
2017-02-12T05:43:43.546Z,27
2017-02-12T05:44:43.283Z,27
2017-02-12T05:45:43.351Z,27
2017-02-12T05:46:46.326Z,27
2017-02-12T05:47:43.519Z,27
2017-02-12T05:48:45.452Z,27
2017-02-12T05:49:45.846Z,26.9
2017-02-12T05:50:43.683Z,27
2017-02-12T05:51:47.027Z,26.9
2017-02-12T05:52:43.736Z,26.9
2017-02-12T05:53:43.784Z,26.9
2017-02-12T05:54:43.832Z,26.9
2017-02-12T05:55:44.195Z,26.9
2017-02-12T05:56:43.877Z,26.9
2017-02-12T05:57:44.039Z,26.9
2017-02-12T05:58:47.342Z,26.9
2017-02-12T05:59:44.012Z,26.9
2017-02-12T06:00:44.067Z,26.9
2017-02-12T06:01:47.569Z,26.9
2017-02-12T06:02:44.034Z,26.9
2017-02-12T06:03:46.010Z,26.9
2017-02-12T06:04:47.521Z,26.9
2017-02-12T06:05:47.519Z,26.9
2017-02-12T06:06:47.517Z,26.9
2017-02-12T06:07:46.425Z,26.9
2017-02-12T06:08:46.280Z,26.9
2017-02-12T06:09:44.480Z,26.9
2017-02-12T06:10:47.756Z,26.9
2017-02-12T06:11:47.828Z,26.9
2017-02-12T06:12:44.562Z,26.9
2017-02-12T06:13:46.862Z,26.9
2017-02-12T06:14:46.541Z,26.9
2017-02-12T06:15:44.628Z,26.9
2017-02-12T06:16:44.687Z,26.9
2017-02-12T06:17:44.714Z,26.9
2017-02-12T06:18:44.730Z,26.9
2017-02-12T06:19:45.045Z,26.9
2017-02-12T06:20:48.128Z,26.9
2017-02-12T06:21:44.897Z,26.9
2017-02-12T06:22:46.912Z,26.9
2017-02-12T06:23:48.410Z,27
2017-02-12T06:24:45.116Z,26.9
2017-02-12T06:25:47.315Z,26.9
2017-02-12T06:26:45.157Z,26.9
2017-02-12T06:27:45.099Z,26.9
2017-02-12T06:28:45.183Z,26.9
2017-02-12T06:29:47.050Z,26.9
2017-02-12T06:30:45.248Z,26.9
2017-02-12T06:31:47.408Z,26.9
2017-02-12T06:32:47.274Z,26.9
2017-02-12T06:33:45.346Z,26.9
2017-02-12T06:34:45.348Z,26.9
2017-02-12T06:35:48.776Z,26.9
2017-02-12T06:36:48.932Z,26.9
2017-02-12T06:37:45.916Z,26.9
2017-02-12T06:38:47.513Z,26.9
2017-02-12T06:39:45.724Z,26.9
2017-02-12T06:43:08.074Z,26.9
2017-02-12T06:44:08.942Z,26.9
2017-02-12T06:45:06.296Z,26.9
2017-02-12T06:46:07.736Z,27
2017-02-12T06:47:09.532Z,27
2017-02-12T06:48:06.271Z,27
2017-02-12T06:49:07.245Z,27
2017-02-12T06:50:06.165Z,27
2017-02-12T06:51:06.455Z,27
2017-02-12T06:52:07.131Z,27
2017-02-12T06:53:06.645Z,26.9
2017-02-12T06:54:06.649Z,26.9
2017-02-12T06:55:10.550Z,26.9
2017-02-12T06:56:09.766Z,26.9
2017-02-12T06:57:08.577Z,26.9
2017-02-12T06:58:10.170Z,26.9
2017-02-12T06:59:06.557Z,26.9
2017-02-12T07:03:06.537Z,26.9
2017-02-12T07:04:08.085Z,26.9
2017-02-12T07:05:06.342Z,27
2017-02-12T07:06:06.282Z,27
2017-02-12T07:07:06.293Z,27
2017-02-12T07:08:06.291Z,27
2017-02-12T07:09:06.667Z,27
2017-02-12T07:10:08.341Z,27
2017-02-12T07:11:09.924Z,27
2017-02-12T07:12:06.602Z,27
2017-02-12T07:13:06.733Z,27
2017-02-12T07:14:06.793Z,27
2017-02-12T07:15:08.952Z,27
2017-02-12T07:16:08.812Z,27
2017-02-12T07:17:06.908Z,26.9
2017-02-12T07:18:10.243Z,26.9
2017-02-12T07:19:06.916Z,26.9
2017-02-12T07:20:06.971Z,26.9
2017-02-12T07:21:09.317Z,26.9
2017-02-12T07:22:07.244Z,26.9
2017-02-12T07:23:10.638Z,26.9
2017-02-12T07:24:07.316Z,26.9
2017-02-12T07:25:09.252Z,26.9
2017-02-12T07:26:07.302Z,26.9
2017-02-12T07:27:07.720Z,26.9
2017-02-12T07:28:07.467Z,26.9
2017-02-12T07:29:07.592Z,26.9
2017-02-12T07:30:07.584Z,26.9
2017-02-12T07:31:09.572Z,26.9
2017-02-12T07:32:11.052Z,26.9
2017-02-12T07:33:08.036Z,26.9
2017-02-12T07:34:07.822Z,26.9
2017-02-12T07:35:07.864Z,26.9
2017-02-12T07:36:11.283Z,26.9
2017-02-12T07:37:10.036Z,26.9
2017-02-12T07:38:11.442Z,26.9
2017-02-12T07:39:10.329Z,26.9
2017-02-12T07:40:10.163Z,26.9
2017-02-12T07:41:11.598Z,26.9
2017-02-12T07:42:11.552Z,26.8
2017-02-12T07:43:08.399Z,26.9
2017-02-12T07:44:08.381Z,26.8
2017-02-12T07:45:08.677Z,26.8
2017-02-12T07:46:10.418Z,26.8
2017-02-12T07:47:11.867Z,26.8
2017-02-12T07:48:08.667Z,26.8
2017-02-12T07:49:10.615Z,26.8
2017-02-12T07:50:12.120Z,26.8
2017-02-12T07:51:09.101Z,26.8
2017-02-12T07:52:08.952Z,26.8
2017-02-12T07:53:08.863Z,26.8
2017-02-12T07:54:08.960Z,26.8
2017-02-12T07:55:10.892Z,26.8
2017-02-12T07:56:11.029Z,26.8
2017-02-12T07:57:12.730Z,26.8
2017-02-12T07:58:12.447Z,26.8
2017-02-12T07:59:12.584Z,26.8
2017-02-12T08:00:09.149Z,26.8
2017-02-12T08:01:11.124Z,26.8
2017-02-12T08:02:12.667Z,26.7
2017-02-12T08:03:09.612Z,26.7
2017-02-12T08:04:09.352Z,26.7
2017-02-12T08:05:11.450Z,26.7
2017-02-12T08:06:09.501Z,26.7
2017-02-12T08:07:12.903Z,26.7
2017-02-12T08:08:09.967Z,26.7
2017-02-12T08:09:09.796Z,26.7
2017-02-12T08:10:09.780Z,26.7
2017-02-12T08:11:09.777Z,26.7
2017-02-12T08:12:13.161Z,26.7
2017-02-12T08:13:11.917Z,26.7
2017-02-12T08:14:13.693Z,26.6
2017-02-12T08:15:10.026Z,26.6
2017-02-12T08:16:12.010Z,26.6
2017-02-12T08:17:10.170Z,26.6
2017-02-12T08:18:10.236Z,26.6
2017-02-12T08:19:12.293Z,26.6
2017-02-12T08:20:10.748Z,26.6
2017-02-12T08:21:13.764Z,26.6
2017-02-12T08:22:12.388Z,26.6
2017-02-12T08:23:10.527Z,26.6
2017-02-12T08:24:13.927Z,26.6
2017-02-12T08:25:10.774Z,26.6
2017-02-12T08:26:10.984Z,26.6
2017-02-12T08:27:12.726Z,26.6
2017-02-12T08:28:12.674Z,26.6
2017-02-12T08:33:07.848Z,26.6
2017-02-12T08:34:07.617Z,26.6
2017-02-12T08:35:07.680Z,26.6
2017-02-12T08:36:11.170Z,26.6
2017-02-12T08:37:07.857Z,26.6
2017-02-12T08:38:09.735Z,26.6
2017-02-12T08:39:11.560Z,26.6
2017-02-12T08:40:11.310Z,26.6
2017-02-12T08:41:08.059Z,26.6
2017-02-12T08:42:11.365Z,26.5
2017-02-12T08:43:08.137Z,26.5
2017-02-12T08:44:08.056Z,26.5
2017-02-12T08:45:11.743Z,26.5
2017-02-12T08:46:10.218Z,26.5
2017-02-12T08:47:09.330Z,26.5
2017-02-12T08:48:10.225Z,26.5
2017-02-12T08:49:08.496Z,26.5
2017-02-12T08:50:08.476Z,26.5
2017-02-12T08:51:08.842Z,26.5
2017-02-12T08:52:08.612Z,26.4
2017-02-12T08:53:10.513Z,26.4
2017-02-12T08:54:10.514Z,26.3
2017-02-12T08:55:08.771Z,26.3
2017-02-12T08:56:10.701Z,26.2
2017-02-12T08:57:11.027Z,26.2
2017-02-12T08:58:08.743Z,26.2
2017-02-12T08:59:10.814Z,26.2
2017-02-12T09:00:10.759Z,26.1
2017-02-12T09:01:10.915Z,26.1
2017-02-12T09:02:09.028Z,26
2017-02-12T09:03:12.561Z,26
2017-02-12T09:04:08.978Z,25.9
2017-02-12T09:05:09.016Z,25.8
2017-02-12T09:06:11.080Z,25.8
2017-02-12T09:07:11.105Z,25.7
2017-02-12T09:08:09.233Z,25.6
2017-02-12T09:09:12.744Z,25.6
2017-02-12T09:10:11.166Z,25.5
2017-02-12T09:11:11.148Z,25.5
2017-02-12T09:12:09.375Z,25.4
2017-02-12T09:13:12.619Z,25.4
2017-02-12T09:14:09.486Z,25.4
2017-02-12T09:15:11.662Z,25.4
2017-02-12T09:16:11.490Z,25.4
2017-02-12T09:17:11.539Z,25.4
2017-02-12T09:18:09.681Z,25.4
2017-02-12T09:19:11.600Z,25.4
2017-02-12T09:20:09.806Z,25.4
2017-02-12T09:21:10.058Z,25.3
2017-02-12T09:22:13.193Z,25.3
2017-02-12T09:23:11.747Z,25.3
2017-02-12T09:24:11.776Z,25.3
2017-02-12T09:25:09.987Z,25.4
2017-02-12T09:26:09.985Z,25.4
2017-02-12T09:27:10.313Z,25.4
2017-02-12T09:28:10.157Z,25.4
2017-02-12T09:29:10.189Z,25.4
2017-02-12T09:30:12.145Z,25.4
2017-02-12T09:31:13.510Z,25.4
2017-02-12T09:32:10.880Z,25.4
2017-02-12T09:33:11.182Z,25.4
2017-02-12T09:34:10.785Z,25.5
2017-02-12T09:35:10.555Z,25.5
2017-02-12T09:36:12.512Z,25.5
2017-02-12T09:37:13.956Z,25.5
2017-02-12T09:38:13.947Z,25.5
2017-02-12T09:39:12.830Z,25.5
2017-02-12T09:40:12.576Z,25.6
2017-02-12T09:41:13.947Z,25.6
2017-02-12T09:42:10.627Z,25.6
2017-02-12T09:43:12.592Z,25.6
2017-02-12T09:44:12.833Z,25.6
2017-02-12T09:45:13.186Z,25.7
2017-02-12T09:46:10.942Z,25.7
2017-02-12T09:47:12.935Z,25.7
2017-02-12T09:48:11.179Z,25.7
2017-02-12T09:49:11.171Z,25.8
2017-02-12T09:50:11.287Z,25.8
2017-02-12T09:51:13.486Z,25.8
2017-02-12T09:52:14.787Z,25.8
2017-02-12T09:53:13.344Z,25.8
2017-02-12T09:54:14.920Z,25.8
2017-02-12T09:55:14.948Z,25.8
2017-02-12T09:56:13.555Z,25.8
2017-02-12T09:57:11.958Z,25.8
2017-02-12T09:58:15.150Z,25.8
2017-02-12T09:59:15.075Z,25.8
2017-02-12T10:00:15.157Z,25.8
2017-02-12T10:01:17.286Z,25.9
2017-02-12T10:02:11.809Z,25.9
2017-02-12T10:03:12.080Z,25.9
2017-02-12T10:04:13.744Z,25.9
2017-02-12T10:05:15.418Z,25.9
2017-02-12T10:06:12.001Z,25.9
2017-02-12T10:07:11.950Z,25.9
2017-02-12T10:08:12.168Z,25.9
2017-02-12T10:09:12.509Z,25.9
2017-02-12T10:10:14.116Z,25.9
2017-02-12T10:11:12.345Z,25.9
2017-02-12T10:12:12.404Z,26
2017-02-12T10:13:12.443Z,26
2017-02-12T10:14:12.427Z,26
2017-02-12T10:15:14.705Z,26
2017-02-12T10:16:12.615Z,26
2017-02-12T10:17:14.595Z,26
2017-02-12T10:18:14.687Z,26
2017-02-12T10:19:15.670Z,26
2017-02-12T10:20:16.200Z,26
2017-02-12T10:21:16.569Z,26
2017-02-12T10:22:16.279Z,26
2017-02-12T10:23:14.935Z,26
2017-02-12T10:24:12.967Z,26
2017-02-12T10:25:15.004Z,26
2017-02-12T10:26:13.199Z,26
2017-02-12T10:27:13.586Z,26
2017-02-12T10:28:13.353Z,26
2017-02-12T10:29:16.718Z,26
2017-02-12T10:30:16.711Z,26
2017-02-12T10:31:16.802Z,26
2017-02-12T10:32:13.529Z,26.1
2017-02-12T10:33:13.740Z,26.1
2017-02-12T10:34:13.504Z,26.1
2017-02-12T10:35:13.565Z,26.1
2017-02-12T10:36:16.948Z,26.1
2017-02-12T10:37:15.490Z,26.1
2017-02-12T10:38:13.594Z,26.1
2017-02-12T10:39:13.943Z,26.1
2017-02-12T10:40:17.028Z,26.1
2017-02-12T10:41:17.117Z,26.1
2017-02-12T10:42:13.918Z,26.1
2017-02-12T10:43:15.756Z,26.1
2017-02-12T10:44:15.794Z,26.1
2017-02-12T10:45:14.318Z,26.1
2017-02-12T10:46:13.940Z,26.1
2017-02-12T10:47:15.962Z,26.1
2017-02-12T10:48:17.518Z,26.1
2017-02-12T10:49:14.259Z,26.1
2017-02-12T10:50:14.208Z,26.1
2017-02-12T10:51:17.890Z,26.1
2017-02-12T10:52:14.384Z,26.1
2017-02-12T10:53:14.321Z,26.1
2017-02-12T10:54:14.442Z,26.1
2017-02-12T10:55:14.496Z,26.1
2017-02-12T10:56:16.363Z,26.1
2017-02-12T10:57:16.738Z,26.1
2017-02-12T10:58:14.598Z,26.1
2017-02-12T10:59:14.661Z,26.1
2017-02-12T11:00:14.639Z,26.1
2017-02-12T11:01:16.612Z,26.1
2017-02-12T11:02:16.761Z,26.1
2017-02-12T11:03:17.011Z,26.1
2017-02-12T11:04:14.954Z,26.2
2017-02-12T11:05:16.970Z,26.2
2017-02-12T11:06:15.155Z,26.2
2017-02-12T11:07:15.119Z,26.2
2017-02-12T11:08:15.318Z,26.2
2017-02-12T11:09:17.512Z,26.2
2017-02-12T11:10:18.714Z,26.2
2017-02-12T11:11:18.736Z,26.2
2017-02-12T11:12:17.400Z,26.2
2017-02-12T11:13:17.472Z,26.2
2017-02-12T11:14:20.205Z,26.2
2017-02-12T11:15:15.948Z,26.2
2017-02-12T11:16:15.643Z,26.2
2017-02-12T11:17:15.713Z,26.2
2017-02-12T11:18:15.811Z,26.2
2017-02-12T11:19:17.781Z,26.2
2017-02-12T11:20:16.033Z,26.3
2017-02-12T11:21:16.222Z,26.3
2017-02-12T11:22:16.087Z,26.3
2017-02-12T11:23:19.430Z,26.3
2017-02-12T11:24:16.267Z,26.3
2017-02-12T11:25:16.314Z,26.3
2017-02-12T11:26:18.213Z,26.3
2017-02-12T11:27:18.534Z,26.2
2017-02-12T11:28:19.652Z,26.2
2017-02-12T11:29:16.473Z,26.2
2017-02-12T11:30:19.808Z,26.2
2017-02-12T11:31:16.548Z,26.2
2017-02-12T11:32:18.607Z,26.2
2017-02-12T11:33:17.042Z,26.2
2017-02-12T11:34:20.158Z,26.2
2017-02-12T11:35:16.728Z,26.2
2017-02-12T11:36:16.880Z,26.2
2017-02-12T11:37:16.845Z,26.2
2017-02-12T11:38:16.923Z,26.2
2017-02-12T11:39:20.671Z,26.2
2017-02-12T11:40:16.993Z,26.2
2017-02-12T11:41:17.128Z,26.2
2017-02-12T11:42:18.985Z,26.2
2017-02-12T11:43:20.413Z,26.2
2017-02-12T11:44:20.466Z,26.2
2017-02-12T11:45:19.324Z,26.2
2017-02-12T11:46:19.114Z,26.2
2017-02-12T11:47:17.163Z,26.2
2017-02-12T11:48:17.292Z,26.2
2017-02-12T11:49:20.637Z,26.2
2017-02-12T11:50:20.658Z,26.2
2017-02-12T11:51:17.645Z,26.2
2017-02-12T11:52:17.422Z,26.2
2017-02-12T11:53:20.863Z,26.2
2017-02-12T11:54:20.944Z,26.2
2017-02-12T11:55:19.470Z,26.1
2017-02-12T11:56:19.640Z,26.1
2017-02-12T11:57:18.025Z,26.1
2017-02-12T11:58:17.817Z,26.1
2017-02-12T11:59:19.730Z,26.1
2017-02-12T12:00:17.842Z,26.1
2017-02-12T12:01:21.168Z,26.1
2017-02-12T12:02:19.774Z,26.1
2017-02-12T12:03:21.460Z,26.1
2017-02-12T12:04:17.999Z,26.1
2017-02-12T12:05:20.021Z,26.1
2017-02-12T12:06:20.030Z,26.1
2017-02-12T12:07:18.110Z,26.1
2017-02-12T12:08:20.016Z,26.1
2017-02-12T12:09:21.650Z,26.1
2017-02-12T12:10:21.504Z,26.1
2017-02-12T12:11:18.262Z,26.1
2017-02-12T12:12:18.288Z,26.1
2017-02-12T12:13:18.333Z,26.1
2017-02-12T12:14:18.293Z,26
2017-02-12T12:15:18.707Z,26
2017-02-12T12:16:18.366Z,26
2017-02-12T12:17:18.529Z,25.9
2017-02-12T12:18:18.461Z,25.9
2017-02-12T12:19:18.555Z,25.8
2017-02-12T12:20:18.586Z,25.8
2017-02-12T12:21:20.895Z,25.7
2017-02-12T12:22:18.616Z,25.7
2017-02-12T12:23:20.682Z,25.6
2017-02-12T12:24:18.774Z,25.6
2017-02-12T12:25:20.681Z,25.5
2017-02-12T12:26:22.186Z,25.5
2017-02-12T12:27:19.263Z,25.4
2017-02-12T12:28:19.094Z,25.3
2017-02-12T12:29:19.111Z,25.3
2017-02-12T12:30:22.531Z,25.2
2017-02-12T12:31:19.152Z,25.1
2017-02-12T12:32:21.135Z,25.1
2017-02-12T12:33:22.891Z,25
2017-02-12T12:34:22.677Z,25
2017-02-12T12:35:22.822Z,25
2017-02-12T12:36:22.805Z,25
2017-02-12T12:37:21.433Z,25
2017-02-12T12:38:22.818Z,25.1
2017-02-12T12:39:19.896Z,25.1
2017-02-12T12:40:22.934Z,25.1
2017-02-12T12:41:21.620Z,25.1
2017-02-12T12:42:21.707Z,25.2
2017-02-12T12:43:19.902Z,25.2
2017-02-12T12:44:19.977Z,25.2
2017-02-12T12:45:20.202Z,25.2
2017-02-12T12:46:22.021Z,25.2
2017-02-12T12:47:22.090Z,25.2
2017-02-12T12:48:20.173Z,25.2
2017-02-12T12:49:20.645Z,25.2
2017-02-12T12:50:20.123Z,25.2
2017-02-12T12:51:23.750Z,25.2
2017-02-12T12:52:23.503Z,25.2
2017-02-12T12:53:20.255Z,25.2
2017-02-12T12:54:23.713Z,25.2
2017-02-12T12:55:23.765Z,25.2
2017-02-12T12:56:22.451Z,25.2
2017-02-12T12:57:22.732Z,25.2
2017-02-12T12:58:23.837Z,25
2017-02-12T12:59:20.654Z,24.8
2017-02-12T13:00:24.012Z,24.6
2017-02-12T13:01:20.767Z,24.5
2017-02-12T13:02:21.106Z,24.2
2017-02-12T13:03:24.660Z,23.9
2017-02-12T13:04:21.066Z,23.8
2017-02-12T13:05:21.239Z,23.6
2017-02-12T13:06:21.317Z,23.4
2017-02-12T13:07:23.219Z,23.2
2017-02-12T13:08:21.070Z,23
2017-02-12T13:09:21.390Z,22.8
2017-02-12T13:10:24.434Z,22.7
2017-02-12T13:11:21.185Z,22.5
2017-02-12T13:12:21.192Z,22.3
2017-02-12T13:13:21.166Z,22.4
2017-02-12T13:14:23.236Z,22.6
2017-02-12T13:15:21.582Z,22.8
2017-02-12T13:16:24.716Z,23
2017-02-12T13:17:24.835Z,23.2
2017-02-12T13:18:21.564Z,23.4
2017-02-12T13:19:25.002Z,23.5
2017-02-12T13:20:21.575Z,23.7
2017-02-12T13:21:23.885Z,23.9
2017-02-12T13:22:21.733Z,24
2017-02-12T13:23:21.810Z,24.1
2017-02-12T13:24:25.043Z,24.2
2017-02-12T13:25:21.815Z,24.2
2017-02-12T13:26:25.234Z,24.3
2017-02-12T13:27:25.642Z,24.4
2017-02-12T13:28:25.321Z,24.5
2017-02-12T13:29:25.521Z,24.5
2017-02-12T13:30:25.532Z,24.6
2017-02-12T13:31:24.227Z,24.6
2017-02-12T13:32:22.271Z,24.7
2017-02-12T13:33:24.651Z,24.7
2017-02-12T13:34:22.403Z,24.7
2017-02-12T13:35:25.796Z,24.8
2017-02-12T13:36:24.448Z,24.9
2017-02-12T13:37:22.710Z,24.9
2017-02-12T13:38:22.805Z,25
2017-02-12T13:39:26.444Z,25
2017-02-12T13:40:22.795Z,25.1
2017-02-12T13:41:26.196Z,25.1
2017-02-12T13:42:22.969Z,25.1